Garden Grove, IA (50103)

3:40 AM CDT on July 30, 2014 (GMT -0500)
Corydon IA (KIACORYD2) Elev 1089 ft | 40.77 °N, 93.34 °W | Change Station

Current weather conditions updated 58 seconds ago

Clear
Clear
57.0 °F
Feels Like 57.0 °F
N
0.0
Wind Variable Wind from NW
Gusts 0.7 mph

Today is forecast to be nearly the same temperature as yesterday.

Today
High -- | Low -- °F
--% Chance of Precip.
Yesterday
High -- | Low -- °F
Precip. -- in
6:09 AM 8:31 PM
Waxing Crescent, 10% visible
Pressure 30.09 in
Visibility 10.0 miles
Clouds Clear
Dew Point 56 °F
Humidity 95%
Rainfall 0.00 in
Snow Depth Not available.
UV 0 out of 12
Pollen 6.70 out of 12
Air Quality Not available.
Flu Activity Not available.
METAR KLWD 300753Z AUTO 32004KT 10SM CLR 14/12 A3011 RMK AO2 SLP190 T01440122

More Conditions Fewer Conditions

Pressure 30.09 in
Visibility 10.0 miles
Clouds Clear
Dew Point 56 °F
Humidity 95%
Rainfall 0.00 in
Snow Depth Not available.
UV 0 out of 12
Pollen 6.70 out of 12
Air Quality Not available.
Flu Activity Not available.
METAR KLWD 300753Z AUTO 32004KT 10SM CLR 14/12 A3011 RMK AO2 SLP190 T01440122

More Conditions Fewer Conditions

10-Day Weather Forecast

Almanac

Astronomy

Jul. 30, 2014 Rise Set
Actual Time 6:09 AM CDT 8:31 PM CDT
Civil Twilight 5:38 AM CDT 9:02 PM CDT
Nautical Twilight 5:00 AM CDT 9:40 PM CDT
Astronomical Twilight 4:17 AM CDT 10:23 PM CDT
Moon 9:43 AM CDT 10:13 PM CDT
Length of Visible Light 15h 24m
Length of Day
14h 22m
Tomorrow will be 1m 59s shorter.
Waxing Crescent, 10% of the Moon is Illuminated
Today
Waxing Crescent
Aug 3
First Quarter
Aug 10
Full
Aug 17
Last Quarter
Aug 25
New

Today's Extremes

State Highs State Lows

Community

WunderPhotos

Upload Photos

1,739,019 photos uploaded!

WunderBlogs® & News

By Dr. Jeff Masters
Director of Meteorology, Weather Underground
By Kari Strenfel
Meteorologist, Weather Underground
By Christopher C. Burt
Weather Historian, Weather Underground
July 29, 2014
July 29, 2014
July 29, 2014

Nearby

Snow Depth

Station Depth Elevation
No new snow has been reported.

Earthquake Activity

City Distance Mag. Time & Date
No recent earthquake activity has been reported nearby.
Minimum magnitude displayed is 2.5.

Coastal Water Temperatures

Place Temperature
No Stations Reporting

Nearby Weather Stations

Station Location Temp. Dew Point Humidity Wind Precip. Elev Updated Type
MesoWest LINEVL , Lineville, IA 59 °F - - North  at  - 0.00 in / hr 1098 ft 2:35 AM CDT MADIS
Corydon IA, Corydon, IA 57.0 °F 56 °F 95% NW  at  0.0 mph 0.00 in / hr 1089 ft 3:39 AM CDT Normal
MesoWest CORYDN , Corydon, IA 64 °F - - North  at  - 0.00 in / hr 1087 ft 2:15 AM CDT MADIS
farm, Chariton, IA 55.9 °F 54 °F 93% WSW  at  0.0 mph 0.00 in / hr 971 ft 3:40 AM CDT Rapid Fire

Show More Stations Show Fewer Stations